Time;durP1;ratioP1;P1;durP2;ratioP2;P2;SDS_P1;SDS_P2;PMS_P1;PMS_P2;Temp;Humidity;BMP_temperature;BMP_pressure;BME280_temperature;BME280_humidity;BME280_pressure;Samples;Min_cycle;Max_cycle;Signal;HPM_P1;HPM_P2
2023/10/25 00:02:25;;;;;;;13.67;10.20;;;;;;;;;;5115478;28;20816;-85
2023/10/25 00:04:54;;;;;;;12.17;10.20;;;;;;;;;;5115530;28;20974;-85
2023/10/25 00:07:20;;;;;;;12.20;10.30;;;;;;;;;;5114996;28;20436;-84
2023/10/25 00:09:46;;;;;;;15.43;10.50;;;;;;;;;;5115129;28;20419;-86
2023/10/25 00:12:12;;;;;;;16.10;10.70;;;;;;;;;;5115457;28;20422;-87
2023/10/25 00:14:38;;;;;;;13.90;10.90;;;;;;;;;;5115437;28;20415;-85
2023/10/25 00:17:04;;;;;;;12.90;11.30;;;;;;;;;;5115269;28;20407;-87
2023/10/25 00:19:30;;;;;;;15.03;11.77;;;;;;;;;;5115225;28;20470;-86
2023/10/25 00:21:56;;;;;;;15.00;11.37;;;;;;;;;;5114588;28;20769;-86
2023/10/25 00:24:21;;;;;;;15.00;10.90;;;;;;;;;;5114722;28;20420;-86
2023/10/25 00:26:47;;;;;;;15.77;11.37;;;;;;;;;;5115077;28;20407;-87
2023/10/25 00:29:13;;;;;;;19.07;12.70;;;;;;;;;;5114954;28;20407;-86
2023/10/25 00:31:39;;;;;;;16.90;11.90;;;;;;;;;;5115013;28;20512;-86
2023/10/25 00:34:05;;;;;;;15.60;10.70;;;;;;;;;;5096186;28;20197;-85
2023/10/25 00:36:31;;;;;;;14.83;11.10;;;;;;;;;;5113835;28;20447;-89
2023/10/25 00:38:57;;;;;;;14.30;10.70;;;;;;;;;;5115041;28;20284;-85
2023/10/25 00:41:23;;;;;;;14.77;11.10;;;;;;;;;;5114907;28;20794;-85
2023/10/25 00:43:49;;;;;;;13.67;10.00;;;;;;;;;;5114995;28;20169;-85
2023/10/25 00:46:25;;;;;;;14.43;11.63;;;;;;;;;;5114832;28;20414;-85
2023/10/25 00:48:55;;;;;;;14.00;10.97;;;;;;;;;;5114791;28;20510;-86
2023/10/25 00:51:22;;;;;;;14.67;10.43;;;;;;;;;;5114039;28;20409;-86
2023/10/25 00:53:52;;;;;;;14.60;11.70;;;;;;;;;;5114570;28;20895;-86
2023/10/25 00:56:18;;;;;;;15.23;12.10;;;;;;;;;;5113304;28;20912;-85
2023/10/25 00:58:45;;;;;;;15.73;10.77;;;;;;;;;;5114143;28;20476;-86
2023/10/25 01:01:11;;;;;;;13.70;10.33;;;;;;;;;;5096267;28;20918;-86
2023/10/25 01:03:37;;;;;;;14.97;11.70;;;;;;;;;;5114662;28;21012;-86
2023/10/25 01:06:03;;;;;;;15.80;11.87;;;;;;;;;;5114201;28;20498;-86
2023/10/25 01:08:30;;;;;;;15.07;12.20;;;;;;;;;;5114522;28;20497;-85
2023/10/25 01:10:56;;;;;;;16.50;12.50;;;;;;;;;;5114515;28;20412;-87
2023/10/25 01:13:22;;;;;;;16.37;12.07;;;;;;;;;;5114259;28;20769;-88
2023/10/25 01:15:48;;;;;;;18.60;13.97;;;;;;;;;;5114380;28;20406;-86
2023/10/25 01:18:14;;;;;;;18.70;13.10;;;;;;;;;;5096071;28;20424;-85
2023/10/25 01:20:41;;;;;;;18.70;13.00;;;;;;;;;;5113981;28;20483;-84
2023/10/25 01:23:07;;;;;;;20.57;14.00;;;;;;;;;;5114055;28;20438;-84
2023/10/25 01:25:37;;;;;;;21.23;14.17;;;;;;;;;;5114060;28;20444;-87
2023/10/25 01:28:03;;;;;;;17.97;13.03;;;;;;;;;;5114231;28;20505;-87
2023/10/25 01:30:29;;;;;;;17.43;13.43;;;;;;;;;;5095886;28;20942;-85
2023/10/25 01:32:55;;;;;;;13.30;10.00;;;;;;;;;;5095890;28;20424;-83
2023/10/25 01:35:21;;;;;;;13.10;9.37;;;;;;;;;;5113931;28;20420;-83
2023/10/25 01:37:48;;;;;;;14.10;10.10;;;;;;;;;;5113752;28;20451;-84
2023/10/25 01:40:14;;;;;;;12.70;9.93;;;;;;;;;;5095512;28;20851;-83
2023/10/25 01:42:40;;;;;;;12.87;9.33;;;;;;;;;;5113770;28;20402;-83
2023/10/25 01:45:06;;;;;;;14.80;10.20;;;;;;;;;;5113820;28;20418;-85
2023/10/25 01:47:32;;;;;;;11.13;9.37;;;;;;;;;;5113766;28;20259;-84
2023/10/25 01:49:58;;;;;;;12.87;10.30;;;;;;;;;;5113694;28;20499;-84
2023/10/25 01:52:23;;;;;;;12.80;8.97;;;;;;;;;;5113350;28;20924;-83
2023/10/25 01:54:52;;;;;;;12.13;10.33;;;;;;;;;;5113567;28;20410;-84
2023/10/25 01:57:18;;;;;;;12.63;8.53;;;;;;;;;;5113360;28;20456;-84
2023/10/25 01:59:44;;;;;;;12.07;8.80;;;;;;;;;;5113574;28;20469;-84
2023/10/25 02:02:11;;;;;;;11.00;7.30;;;;;;;;;;5113548;28;20410;-84
2023/10/25 02:04:37;;;;;;;13.53;7.10;;;;;;;;;;5113036;28;20416;-84
2023/10/25 02:07:03;;;;;;;14.30;7.83;;;;;;;;;;5113188;28;20843;-85
2023/10/25 02:09:29;;;;;;;7.67;5.90;;;;;;;;;;5115586;27;20429;-84
2023/10/25 02:11:55;;;;;;;9.07;7.13;;;;;;;;;;5122613;27;20416;-83
2023/10/25 02:14:21;;;;;;;7.43;5.60;;;;;;;;;;5120327;27;20413;-83
2023/10/25 02:16:47;;;;;;;10.40;7.27;;;;;;;;;;5123308;27;20912;-83
2023/10/25 02:19:13;;;;;;;12.13;9.70;;;;;;;;;;5105571;28;20475;-83
2023/10/25 02:21:39;;;;;;;11.77;8.30;;;;;;;;;;5103867;28;20409;-83
2023/10/25 02:24:05;;;;;;;12.33;8.20;;;;;;;;;;5123586;28;20414;-84
2023/10/25 02:26:31;;;;;;;29.10;10.87;;;;;;;;;;5123739;28;20486;-84
2023/10/25 02:28:57;;;;;;;24.20;10.27;;;;;;;;;;5121985;28;21047;-83
2023/10/25 02:31:26;;;;;;;16.30;8.20;;;;;;;;;;5123722;28;20407;-84
2023/10/25 02:33:52;;;;;;;17.53;10.33;;;;;;;;;;5123866;28;20406;-83
2023/10/25 02:36:18;;;;;;;34.50;10.30;;;;;;;;;;5121542;28;20413;-83
2023/10/25 02:38:47;;;;;;;23.33;9.80;;;;;;;;;;5117491;28;20455;-85
2023/10/25 02:41:13;;;;;;;31.63;10.53;;;;;;;;;;5113072;28;20424;-86
2023/10/25 02:43:39;;;;;;;26.87;9.50;;;;;;;;;;5095036;28;20515;-84
2023/10/25 02:46:12;;;;;;;30.83;9.40;;;;;;;;;;5095217;28;20763;-84
2023/10/25 02:48:38;;;;;;;36.53;10.50;;;;;;;;;;5113086;28;20421;-84
2023/10/25 02:51:05;;;;;;;28.53;10.87;;;;;;;;;;5112791;28;20424;-83
2023/10/25 02:53:31;;;;;;;32.63;9.40;;;;;;;;;;5113246;28;20437;-83
2023/10/25 02:56:04;;;;;;;52.23;11.37;;;;;;;;;;5113173;28;20415;-83
2023/10/25 02:58:30;;;;;;;23.30;9.10;;;;;;;;;;5123004;28;20452;-84
2023/10/25 03:00:56;;;;;;;26.53;8.70;;;;;;;;;;5120031;28;20434;-83
2023/10/25 03:03:23;;;;;;;21.20;9.37;;;;;;;;;;5123999;28;20469;-84
2023/10/25 03:05:49;;;;;;;30.93;10.70;;;;;;;;;;5132378;28;20403;-84
2023/10/25 03:08:15;;;;;;;34.97;10.77;;;;;;;;;;5123956;28;20414;-83
2023/10/25 03:10:41;;;;;;;23.10;10.20;;;;;;;;;;5116765;28;21024;-84
2023/10/25 03:13:06;;;;;;;28.73;10.63;;;;;;;;;;5123770;28;20459;-84
2023/10/25 03:15:32;;;;;;;23.27;10.70;;;;;;;;;;5123010;28;20413;-84
2023/10/25 03:17:59;;;;;;;31.47;11.10;;;;;;;;;;5105502;27;20423;-83
2023/10/25 03:20:24;;;;;;;21.37;9.60;;;;;;;;;;5126389;27;20473;-85
2023/10/25 03:22:50;;;;;;;32.27;11.37;;;;;;;;;;5112880;28;20421;-85
2023/10/25 03:25:19;;;;;;;31.43;11.67;;;;;;;;;;5115557;28;20512;-86
2023/10/25 03:27:46;;;;;;;32.10;11.73;;;;;;;;;;5116105;28;20401;-84
2023/10/25 03:30:12;;;;;;;28.70;11.70;;;;;;;;;;5116058;28;20439;-86
2023/10/25 03:32:38;;;;;;;35.60;12.43;;;;;;;;;;5116091;28;20454;-84
2023/10/25 03:35:05;;;;;;;44.80;14.20;;;;;;;;;;5097782;28;20416;-84
2023/10/25 03:37:30;;;;;;;66.27;19.13;;;;;;;;;;5115705;28;20402;-84
2023/10/25 03:39:56;;;;;;;70.83;16.33;;;;;;;;;;5115757;28;20630;-83
2023/10/25 03:42:23;;;;;;;50.67;16.67;;;;;;;;;;5097738;28;20436;-85
2023/10/25 03:44:49;;;;;;;70.27;16.87;;;;;;;;;;5115868;28;20436;-84
2023/10/25 03:47:14;;;;;;;52.00;14.67;;;;;;;;;;5115907;28;20517;-85
2023/10/25 03:49:40;;;;;;;64.40;19.87;;;;;;;;;;5115669;28;20440;-86
2023/10/25 03:52:06;;;;;;;49.10;14.30;;;;;;;;;;5115304;28;20423;-83
2023/10/25 03:54:36;;;;;;;77.07;16.63;;;;;;;;;;5115533;28;20427;-83
2023/10/25 03:57:02;;;;;;;69.03;17.00;;;;;;;;;;5114964;28;20448;-84
2023/10/25 03:59:28;;;;;;;58.83;14.23;;;;;;;;;;5115609;28;20472;-83
2023/10/25 04:01:54;;;;;;;55.97;18.30;;;;;;;;;;5115446;28;20406;-83
2023/10/25 04:04:20;;;;;;;48.87;12.77;;;;;;;;;;5115460;28;20412;-83
2023/10/25 04:06:46;;;;;;;37.70;13.80;;;;;;;;;;5115069;28;20504;-83
2023/10/25 04:09:12;;;;;;;56.10;16.50;;;;;;;;;;5115403;28;20412;-83
2023/10/25 04:11:38;;;;;;;47.10;13.90;;;;;;;;;;5115435;28;20413;-84
2023/10/25 04:14:04;;;;;;;50.27;13.90;;;;;;;;;;5115228;28;20410;-84
2023/10/25 04:16:29;;;;;;;37.57;12.53;;;;;;;;;;5115369;28;20763;-84
2023/10/25 04:18:55;;;;;;;50.17;14.27;;;;;;;;;;5096717;28;20466;-84
2023/10/25 04:21:21;;;;;;;54.53;13.87;;;;;;;;;;5114870;28;20410;-84
2023/10/25 04:23:47;;;;;;;34.23;12.20;;;;;;;;;;5096750;28;20433;-85
2023/10/25 04:26:14;;;;;;;19.70;10.43;;;;;;;;;;5096821;28;20929;-84
2023/10/25 04:28:41;;;;;;;25.67;11.00;;;;;;;;;;5114462;28;20406;-84
2023/10/25 04:31:07;;;;;;;41.07;13.17;;;;;;;;;;5114942;28;20410;-84
2023/10/25 04:33:33;;;;;;;64.50;13.67;;;;;;;;;;5114791;28;20424;-84
2023/10/25 04:35:59;;;;;;;48.90;14.03;;;;;;;;;;5114411;28;20418;-83
2023/10/25 04:38:25;;;;;;;52.30;14.10;;;;;;;;;;5129670;27;21004;-83
2023/10/25 04:40:52;;;;;;;33.10;12.80;;;;;;;;;;5116444;27;20797;-82
2023/10/25 04:43:18;;;;;;;32.17;11.67;;;;;;;;;;5135364;27;20415;-83
2023/10/25 04:45:44;;;;;;;24.03;9.80;;;;;;;;;;5117124;27;20423;-83
2023/10/25 04:48:10;;;;;;;37.63;12.83;;;;;;;;;;5135482;27;20759;-83
2023/10/25 04:50:36;;;;;;;47.67;13.33;;;;;;;;;;5116724;27;20423;-82
2023/10/25 04:53:02;;;;;;;37.80;11.83;;;;;;;;;;5135334;27;20956;-83
2023/10/25 04:55:29;;;;;;;51.23;12.30;;;;;;;;;;5135333;27;20454;-83
2023/10/25 04:57:56;;;;;;;39.23;12.10;;;;;;;;;;5135222;27;20456;-83
2023/10/25 05:00:22;;;;;;;23.13;11.90;;;;;;;;;;5135163;27;20470;-83
2023/10/25 05:02:48;;;;;;;61.63;14.93;;;;;;;;;;5116865;27;20431;-83
2023/10/25 05:05:14;;;;;;;22.90;11.07;;;;;;;;;;5134748;27;20432;-82
2023/10/25 05:07:40;;;;;;;23.80;10.00;;;;;;;;;;5135129;27;20945;-82
2023/10/25 05:10:07;;;;;;;34.00;11.40;;;;;;;;;;5135094;27;20413;-82
2023/10/25 05:12:37;;;;;;;44.37;12.27;;;;;;;;;;5135044;27;20409;-82
2023/10/25 05:15:04;;;;;;;47.03;13.00;;;;;;;;;;5135053;27;20765;-82
2023/10/25 05:17:30;;;;;;;23.33;11.00;;;;;;;;;;5134910;27;20448;-82
2023/10/25 05:19:56;;;;;;;23.60;11.60;;;;;;;;;;5134661;27;20480;-82
2023/10/25 05:22:25;;;;;;;46.67;12.87;;;;;;;;;;5134768;27;20492;-82
2023/10/25 05:24:51;;;;;;;19.30;10.77;;;;;;;;;;5134733;27;20789;-83
2023/10/25 05:27:17;;;;;;;26.17;12.00;;;;;;;;;;5116342;27;20916;-83
2023/10/25 05:29:49;;;;;;;17.47;11.20;;;;;;;;;;5116251;27;20414;-83
2023/10/25 05:32:18;;;;;;;16.37;9.60;;;;;;;;;;5134663;27;20426;-83
2023/10/25 05:34:44;;;;;;;14.87;9.80;;;;;;;;;;5134820;27;20419;-83
2023/10/25 05:37:10;;;;;;;15.87;11.33;;;;;;;;;;5134203;27;20393;-82
2023/10/25 05:39:36;;;;;;;16.73;11.77;;;;;;;;;;5115361;27;20499;-82
2023/10/25 05:42:04;;;;;;;18.03;11.67;;;;;;;;;;5134587;27;20444;-81
2023/10/25 05:44:31;;;;;;;18.20;11.90;;;;;;;;;;5134480;27;20417;-82
2023/10/25 05:46:57;;;;;;;14.27;10.17;;;;;;;;;;5116051;27;20834;-82
2023/10/25 05:49:23;;;;;;;17.33;12.27;;;;;;;;;;5124015;27;20447;-81
2023/10/25 05:51:49;;;;;;;15.63;10.37;;;;;;;;;;5099345;28;20517;-81
2023/10/25 05:54:15;;;;;;;13.27;10.53;;;;;;;;;;5080567;28;20432;-82
2023/10/25 05:56:41;;;;;;;17.60;11.50;;;;;;;;;;5089990;28;20508;-82
2023/10/25 05:59:08;;;;;;;14.40;9.80;;;;;;;;;;5101520;28;20465;-82
2023/10/25 06:01:48;;;;;;;13.10;10.93;;;;;;;;;;5100362;28;20500;-82
2023/10/25 06:04:14;;;;;;;13.67;9.20;;;;;;;;;;5101370;27;20927;-82
2023/10/25 06:06:42;;;;;;;16.33;9.93;;;;;;;;;;5101698;28;20435;-82
2023/10/25 06:09:08;;;;;;;12.80;8.10;;;;;;;;;;5103411;27;20427;-82
2023/10/25 06:11:34;;;;;;;16.63;11.70;;;;;;;;;;5107573;28;20468;-81
2023/10/25 06:14:00;;;;;;;16.73;10.27;;;;;;;;;;5105883;28;20511;-81
2023/10/25 06:16:26;;;;;;;12.90;9.63;;;;;;;;;;5106439;27;20448;-81
2023/10/25 06:18:52;;;;;;;19.53;10.60;;;;;;;;;;5106852;28;20458;-81
2023/10/25 06:21:18;;;;;;;18.20;11.27;;;;;;;;;;5104218;28;20998;-81
2023/10/25 06:23:44;;;;;;;18.27;11.30;;;;;;;;;;5099573;28;20419;-82
2023/10/25 06:26:10;;;;;;;19.77;12.73;;;;;;;;;;5101166;28;20452;-81
2023/10/25 06:28:36;;;;;;;20.27;11.80;;;;;;;;;;5106410;28;20431;-83
2023/10/25 06:31:02;;;;;;;20.23;11.63;;;;;;;;;;5112936;28;20418;-83
2023/10/25 06:33:27;;;;;;;25.30;13.00;;;;;;;;;;5112255;28;20408;-82
2023/10/25 06:35:54;;;;;;;19.73;12.37;;;;;;;;;;5112508;28;20396;-81
2023/10/25 06:38:20;;;;;;;22.63;13.30;;;;;;;;;;5113216;28;20925;-82
2023/10/25 06:40:46;;;;;;;22.60;12.30;;;;;;;;;;5113241;28;20548;-81
2023/10/25 06:43:12;;;;;;;16.70;11.53;;;;;;;;;;5113239;28;20405;-83
2023/10/25 06:45:38;;;;;;;20.50;14.30;;;;;;;;;;5113087;28;20412;-82
2023/10/25 06:48:04;;;;;;;22.73;13.87;;;;;;;;;;5113112;28;20414;-82
2023/10/25 06:50:30;;;;;;;19.30;13.90;;;;;;;;;;5113251;28;20418;-82
2023/10/25 06:52:56;;;;;;;20.97;12.73;;;;;;;;;;5117691;28;20848;-83
2023/10/25 06:55:22;;;;;;;20.77;12.57;;;;;;;;;;5117488;28;20444;-84
2023/10/25 06:57:48;;;;;;;19.93;12.00;;;;;;;;;;5116806;28;20730;-83
2023/10/25 07:00:14;;;;;;;17.03;11.87;;;;;;;;;;5117333;28;20476;-82
2023/10/25 07:03:01;;;;;;;22.57;15.60;;;;;;;;;;5117276;28;20404;-83
2023/10/25 07:05:28;;;;;;;16.50;12.00;;;;;;;;;;5117302;28;20400;-83
2023/10/25 07:07:54;;;;;;;25.00;14.60;;;;;;;;;;5116912;28;20499;-83
2023/10/25 07:10:20;;;;;;;20.87;12.60;;;;;;;;;;5115570;28;20434;-82
2023/10/25 07:12:46;;;;;;;20.43;12.53;;;;;;;;;;5116967;28;20424;-85
2023/10/25 07:15:12;;;;;;;19.43;12.87;;;;;;;;;;5116803;28;20962;-82
2023/10/25 07:17:39;;;;;;;22.10;13.87;;;;;;;;;;5116869;28;20417;-82
2023/10/25 07:20:11;;;;;;;21.40;13.03;;;;;;;;;;5116225;28;20463;-81
2023/10/25 07:22:38;;;;;;;18.00;12.63;;;;;;;;;;5124582;27;20412;-82
2023/10/25 07:25:04;;;;;;;25.43;15.37;;;;;;;;;;5104012;28;20423;-83
2023/10/25 07:27:30;;;;;;;19.40;12.13;;;;;;;;;;5097423;28;20418;-82
2023/10/25 07:29:56;;;;;;;15.80;11.43;;;;;;;;;;5115783;28;20394;-83
2023/10/25 07:32:24;;;;;;;18.53;11.00;;;;;;;;;;5118718;27;20922;-83
2023/10/25 07:34:51;;;;;;;16.87;11.63;;;;;;;;;;5126873;27;20461;-82
2023/10/25 07:37:17;;;;;;;18.20;11.20;;;;;;;;;;5122365;27;20505;-83
2023/10/25 07:39:43;;;;;;;16.73;11.80;;;;;;;;;;5126115;27;20999;-83
2023/10/25 07:42:18;;;;;;;16.33;11.23;;;;;;;;;;5126694;27;20406;-82
2023/10/25 07:44:44;;;;;;;16.90;10.67;;;;;;;;;;5126044;27;20447;-83
2023/10/25 07:47:10;;;;;;;18.73;11.63;;;;;;;;;;5127184;27;20401;-83
2023/10/25 07:49:36;;;;;;;16.17;11.70;;;;;;;;;;5126699;27;20414;-82
2023/10/25 07:52:02;;;;;;;17.57;11.10;;;;;;;;;;5125906;27;20816;-84
2023/10/25 07:54:28;;;;;;;14.97;10.43;;;;;;;;;;5122262;27;20497;-84
2023/10/25 07:56:54;;;;;;;17.70;12.00;;;;;;;;;;5126467;27;20398;-82
2023/10/25 07:59:20;;;;;;;15.97;11.40;;;;;;;;;;5124742;27;20471;-83
2023/10/25 08:01:46;;;;;;;16.80;11.17;;;;;;;;;;5106836;27;20404;-85
2023/10/25 08:04:12;;;;;;;17.73;11.83;;;;;;;;;;5123430;27;20757;-85
2023/10/25 08:06:38;;;;;;;14.63;9.87;;;;;;;;;;5133057;27;20417;-83
2023/10/25 08:09:04;;;;;;;14.40;10.13;;;;;;;;;;5136428;27;20420;-83
2023/10/25 08:11:34;;;;;;;13.07;9.63;;;;;;;;;;5136446;27;20798;-83
2023/10/25 08:14:00;;;;;;;11.80;8.60;;;;;;;;;;5135388;27;20922;-84
2023/10/25 08:16:26;;;;;;;12.20;9.40;;;;;;;;;;5096921;28;20425;-89
2023/10/25 08:18:52;;;;;;;18.53;12.03;;;;;;;;;;5115558;28;20544;-83
2023/10/25 08:21:18;;;;;;;10.80;8.43;;;;;;;;;;5115126;28;20413;-83
2023/10/25 08:23:45;;;;;;;10.37;8.60;;;;;;;;;;5097180;28;20628;-84
2023/10/25 08:26:11;;;;;;;10.17;8.40;;;;;;;;;;5097028;28;20526;-82
2023/10/25 08:28:37;;;;;;;8.30;6.90;;;;;;;;;;5097096;28;20924;-84
2023/10/25 08:31:12;;;;;;;9.40;6.17;;;;;;;;;;5115599;28;20413;-83
2023/10/25 08:33:38;;;;;;;8.20;6.10;;;;;;;;;;5115606;28;20182;-82
2023/10/25 08:36:05;;;;;;;5.83;5.17;;;;;;;;;;5114950;28;20902;-83
2023/10/25 08:38:30;;;;;;;9.37;5.73;;;;;;;;;;5115370;28;20435;-83
2023/10/25 08:41:17;;;;;;;5.87;4.67;;;;;;;;;;5115141;28;20807;-82
2023/10/25 08:43:43;;;;;;;5.50;5.00;;;;;;;;;;5115289;28;20231;-84
2023/10/25 08:46:09;;;;;;;7.73;5.53;;;;;;;;;;5096777;28;20505;-84
2023/10/25 08:48:35;;;;;;;5.93;4.73;;;;;;;;;;5096680;28;20628;-84
2023/10/25 08:51:02;;;;;;;7.80;5.10;;;;;;;;;;5096704;28;20423;-84
2023/10/25 08:53:28;;;;;;;6.67;5.20;;;;;;;;;;5096551;28;20941;-83
2023/10/25 08:55:56;;;;;;;5.57;4.07;;;;;;;;;;5115030;28;20433;-84
2023/10/25 08:58:25;;;;;;;6.33;4.77;;;;;;;;;;5114620;28;20465;-85
2023/10/25 09:00:52;;;;;;;8.40;4.70;;;;;;;;;;5114849;28;20514;-83
2023/10/25 09:03:31;;;;;;;9.20;5.33;;;;;;;;;;5114676;28;20410;-85
2023/10/25 09:05:57;;;;;;;5.57;4.43;;;;;;;;;;5114329;28;20413;-84
2023/10/25 09:08:24;;;;;;;5.40;4.13;;;;;;;;;;5114607;28;20476;-84
2023/10/25 09:10:57;;;;;;;4.33;3.93;;;;;;;;;;5096508;28;20417;-87
2023/10/25 09:13:23;;;;;;;7.20;4.03;;;;;;;;;;5114644;28;20410;-85
2023/10/25 09:15:49;;;;;;;5.03;4.10;;;;;;;;;;5114634;28;20415;-84
2023/10/25 09:18:15;;;;;;;4.90;4.40;;;;;;;;;;5114755;28;20463;-85
2023/10/25 09:20:41;;;;;;;6.03;5.00;;;;;;;;;;5114224;28;20562;-85
2023/10/25 09:23:10;;;;;;;5.93;4.53;;;;;;;;;;5114624;28;20468;-85
2023/10/25 09:25:37;;;;;;;6.60;4.53;;;;;;;;;;5114503;28;20179;-85
2023/10/25 09:28:03;;;;;;;4.57;4.03;;;;;;;;;;5114340;28;20469;-85
2023/10/25 09:30:30;;;;;;;4.10;3.70;;;;;;;;;;5114227;28;20920;-86
2023/10/25 09:32:57;;;;;;;5.73;3.23;;;;;;;;;;5114199;28;20511;-85
2023/10/25 09:35:23;;;;;;;4.10;3.20;;;;;;;;;;5113704;28;20401;-85
2023/10/25 09:37:49;;;;;;;5.03;3.70;;;;;;;;;;5114970;27;20430;-86
2023/10/25 09:40:15;;;;;;;5.33;3.40;;;;;;;;;;5130180;27;20218;-86
2023/10/25 09:42:48;;;;;;;4.90;4.10;;;;;;;;;;5134928;27;20408;-87
2023/10/25 09:45:18;;;;;;;6.40;3.27;;;;;;;;;;5116218;27;20460;-86
2023/10/25 09:47:46;;;;;;;5.40;3.10;;;;;;;;;;5127373;27;20420;-83
2023/10/25 09:50:21;;;;;;;3.87;3.07;;;;;;;;;;5113523;28;20470;-85
2023/10/25 09:52:50;;;;;;;4.90;2.90;;;;;;;;;;5113823;28;20412;-84
2023/10/25 09:55:23;;;;;;;5.40;2.90;;;;;;;;;;5109306;27;20999;-88
2023/10/25 09:57:49;;;;;;;4.90;3.10;;;;;;;;;;5096647;28;20468;-86
2023/10/25 10:00:15;;;;;;;4.57;3.87;;;;;;;;;;5099631;28;20564;-83
2023/10/25 10:02:58;;;;;;;5.57;3.83;;;;;;;;;;5110213;28;20462;-83
2023/10/25 10:05:30;;;;;;;8.70;3.37;;;;;;;;;;5111758;28;20481;-87
2023/10/25 10:08:26;;;;;;;7.33;3.00;;;;;;;;;;5113515;28;20494;-86
2023/10/25 10:11:00;;;;;;;5.77;3.37;;;;;;;;;;5078258;28;20506;-86
2023/10/25 10:13:26;;;;;;;7.33;3.07;;;;;;;;;;5112493;28;20417;-87
2023/10/25 10:16:00;;;;;;;3.53;3.13;;;;;;;;;;5111923;28;20405;-86
2023/10/25 10:18:33;;;;;;;5.30;3.53;;;;;;;;;;5113413;28;20956;-88
2023/10/25 10:21:00;;;;;;;6.43;2.70;;;;;;;;;;5112864;28;20469;-86
2023/10/25 10:23:49;;;;;;;4.50;2.90;;;;;;;;;;5113476;28;20441;-86
2023/10/25 10:26:35;;;;;;;4.33;2.97;;;;;;;;;;5098486;28;20508;-83
2023/10/25 10:29:01;;;;;;;4.00;3.10;;;;;;;;;;5101740;28;20409;-86
2023/10/25 10:31:27;;;;;;;7.30;5.00;;;;;;;;;;5101046;28;20893;-87
2023/10/25 10:33:52;;;;;;;7.50;5.47;;;;;;;;;;5085178;28;20184;-87
2023/10/25 10:36:25;;;;;;;8.77;2.70;;;;;;;;;;5100455;28;20176;-87
2023/10/25 10:39:11;;;;;;;3.60;2.50;;;;;;;;;;5083077;28;20190;-85
2023/10/25 10:41:37;;;;;;;5.00;2.00;;;;;;;;;;5092105;28;20433;-86
2023/10/25 10:44:03;;;;;;;4.93;3.43;;;;;;;;;;5110166;28;20506;-88
2023/10/25 10:46:30;;;;;;;7.10;3.80;;;;;;;;;;5102908;28;20719;-88
2023/10/25 10:49:00;;;;;;;4.43;2.73;;;;;;;;;;5105492;28;20446;-86
2023/10/25 10:51:27;;;;;;;3.63;2.70;;;;;;;;;;5112446;28;20465;-91
2023/10/25 10:53:53;;;;;;;4.73;2.70;;;;;;;;;;5092479;28;20445;-86
2023/10/25 10:56:19;;;;;;;6.13;2.20;;;;;;;;;;5107400;28;20829;-86
2023/10/25 10:58:45;;;;;;;5.80;1.77;;;;;;;;;;5106266;28;20633;-86
2023/10/25 11:01:11;;;;;;;4.60;2.97;;;;;;;;;;5108592;28;20451;-85
2023/10/25 11:03:37;;;;;;;4.13;2.00;;;;;;;;;;5106244;28;20448;-85
2023/10/25 11:06:06;;;;;;;3.77;2.37;;;;;;;;;;5104237;28;20431;-86
2023/10/25 11:08:32;;;;;;;3.60;3.30;;;;;;;;;;5110445;28;20445;-88
2023/10/25 11:10:58;;;;;;;6.00;3.50;;;;;;;;;;5087969;28;20438;-87
2023/10/25 11:13:24;;;;;;;6.57;3.20;;;;;;;;;;5109938;28;20176;-88
2023/10/25 11:16:00;;;;;;;5.30;2.80;;;;;;;;;;5103806;28;20463;-87
2023/10/25 11:18:26;;;;;;;3.90;3.20;;;;;;;;;;5106751;28;20772;-84
2023/10/25 11:20:52;;;;;;;5.97;2.60;;;;;;;;;;5099336;28;20468;-85
2023/10/25 11:23:19;;;;;;;6.00;2.90;;;;;;;;;;5109302;28;20191;-85
2023/10/25 11:25:45;;;;;;;5.23;2.90;;;;;;;;;;5108915;28;20459;-85
2023/10/25 11:28:11;;;;;;;3.93;2.67;;;;;;;;;;5109889;28;20433;-84
2023/10/25 11:30:40;;;;;;;3.70;3.10;;;;;;;;;;5112279;28;20472;-85
2023/10/25 11:33:06;;;;;;;7.17;3.23;;;;;;;;;;5086624;28;20429;-88
2023/10/25 11:35:35;;;;;;;6.33;2.93;;;;;;;;;;5109000;28;20553;-88
2023/10/25 11:38:01;;;;;;;2.93;2.20;;;;;;;;;;5101884;28;20427;-84
2023/10/25 11:40:38;;;;;;;6.33;2.83;;;;;;;;;;5108035;28;20486;-85
2023/10/25 11:43:05;;;;;;;6.47;3.33;;;;;;;;;;5101590;28;20465;-85
2023/10/25 11:45:31;;;;;;;5.10;3.00;;;;;;;;;;5103521;28;20557;-89
2023/10/25 11:47:57;;;;;;;10.10;2.87;;;;;;;;;;5102737;28;20438;-86
2023/10/25 11:50:23;;;;;;;3.40;1.73;;;;;;;;;;5093596;28;20445;-86
2023/10/25 11:52:49;;;;;;;4.50;2.73;;;;;;;;;;5091729;28;20436;-85
2023/10/25 11:55:15;;;;;;;3.60;1.93;;;;;;;;;;5110567;28;20436;-89
2023/10/25 11:57:42;;;;;;;3.23;1.67;;;;;;;;;;5111903;28;20472;-89
2023/10/25 12:00:09;;;;;;;5.00;1.80;;;;;;;;;;5103297;28;20470;-89
2023/10/25 12:02:36;;;;;;;6.17;1.73;;;;;;;;;;5104718;28;20441;-92
2023/10/25 12:05:03;;;;;;;2.30;0.90;;;;;;;;;;5111207;28;20422;-87
2023/10/25 12:07:31;;;;;;;5.37;1.77;;;;;;;;;;5123076;28;20430;-86
2023/10/25 12:09:57;;;;;;;3.50;2.70;;;;;;;;;;5115110;28;20458;-87
2023/10/25 12:12:23;;;;;;;3.97;2.30;;;;;;;;;;5106104;28;20502;-88
2023/10/25 12:14:49;;;;;;;3.53;2.03;;;;;;;;;;5109782;28;20432;-93
2023/10/25 12:17:15;;;;;;;4.80;2.30;;;;;;;;;;5105324;28;20428;-87
2023/10/25 12:19:41;;;;;;;4.00;1.80;;;;;;;;;;5102150;28;20873;-86
2023/10/25 12:22:09;;;;;;;4.40;1.77;;;;;;;;;;5096994;28;20475;-87
2023/10/25 12:24:35;;;;;;;7.33;1.87;;;;;;;;;;5110365;28;20443;-92
2023/10/25 12:27:01;;;;;;;4.17;2.00;;;;;;;;;;5091237;28;20541;-86
2023/10/25 12:29:28;;;;;;;6.07;1.60;;;;;;;;;;5111614;28;20467;-87
2023/10/25 12:31:54;;;;;;;3.37;1.77;;;;;;;;;;5122688;27;20413;-90
2023/10/25 12:34:20;;;;;;;3.73;2.07;;;;;;;;;;5117873;28;20448;-89
2023/10/25 12:36:45;;;;;;;3.77;1.87;;;;;;;;;;5109114;28;20438;-89
2023/10/25 12:39:11;;;;;;;6.60;1.97;;;;;;;;;;5116465;28;20208;-86
2023/10/25 12:41:37;;;;;;;2.57;1.43;;;;;;;;;;5112635;28;20696;-93
2023/10/25 12:44:04;;;;;;;7.70;2.17;;;;;;;;;;5085939;28;20437;-89
2023/10/25 12:46:31;;;;;;;5.03;1.63;;;;;;;;;;5110058;28;20173;-94
2023/10/25 12:48:56;;;;;;;5.63;1.87;;;;;;;;;;5091366;28;20438;-87
2023/10/25 12:51:22;;;;;;;2.83;1.47;;;;;;;;;;5107570;28;20514;-95
2023/10/25 12:53:48;;;;;;;6.20;2.00;;;;;;;;;;5082322;28;20180;-93
2023/10/25 12:56:14;;;;;;;4.43;1.53;;;;;;;;;;5115304;28;20425;-85
2023/10/25 12:58:40;;;;;;;3.73;1.67;;;;;;;;;;5105157;28;20241;-88
2023/10/25 13:01:06;;;;;;;3.40;1.93;;;;;;;;;;5119966;28;20475;-86
2023/10/25 13:03:32;;;;;;;3.97;2.10;;;;;;;;;;5096182;28;20438;-87
2023/10/25 13:05:58;;;;;;;3.87;1.70;;;;;;;;;;5112017;28;20182;-86
2023/10/25 13:08:25;;;;;;;7.30;2.70;;;;;;;;;;5115354;28;20451;-86
2023/10/25 13:10:51;;;;;;;3.20;2.37;;;;;;;;;;5114904;28;20453;-85
2023/10/25 13:13:17;;;;;;;4.87;2.30;;;;;;;;;;5106060;28;20437;-91
2023/10/25 13:15:43;;;;;;;5.30;2.93;;;;;;;;;;5091233;27;20448;-86
2023/10/25 13:18:12;;;;;;;3.30;2.67;;;;;;;;;;5115146;28;20875;-86
2023/10/25 13:20:38;;;;;;;4.50;2.30;;;;;;;;;;5112696;28;20481;-93
2023/10/25 13:23:04;;;;;;;6.80;3.33;;;;;;;;;;5104898;28;20430;-87
2023/10/25 13:25:30;;;;;;;4.90;2.93;;;;;;;;;;5116235;28;20419;-95
2023/10/25 13:27:56;;;;;;;7.83;4.60;;;;;;;;;;5109355;28;20432;-88
2023/10/25 13:30:22;;;;;;;7.13;4.30;;;;;;;;;;5112425;28;20443;-94
2023/10/25 13:32:48;;;;;;;7.43;5.20;;;;;;;;;;5101703;28;20443;-95
2023/10/25 13:35:14;;;;;;;6.30;4.90;;;;;;;;;;5087629;28;20623;-94
2023/10/25 13:37:40;;;;;;;5.97;4.57;;;;;;;;;;5107149;28;20922;-94
2023/10/25 13:40:07;;;;;;;7.50;3.77;;;;;;;;;;5107392;28;20221;-85
2023/10/25 13:42:33;;;;;;;6.27;3.87;;;;;;;;;;5090741;28;20179;-93
2023/10/25 13:45:00;;;;;;;6.20;2.87;;;;;;;;;;5108771;28;20446;-88
2023/10/25 13:47:26;;;;;;;6.13;3.53;;;;;;;;;;5119854;28;20432;-85
2023/10/25 13:49:53;;;;;;;7.90;3.87;;;;;;;;;;5109337;28;20410;-87
2023/10/25 13:52:20;;;;;;;6.57;3.80;;;;;;;;;;5102955;28;20198;-89
2023/10/25 13:54:46;;;;;;;8.40;4.83;;;;;;;;;;5104309;28;20579;-90
2023/10/25 13:57:13;;;;;;;8.10;5.00;;;;;;;;;;5097154;28;20450;-85
2023/10/25 13:59:40;;;;;;;6.90;5.07;;;;;;;;;;5093100;28;20505;-86
2023/10/25 14:02:08;;;;;;;9.23;5.40;;;;;;;;;;5112130;28;21005;-89
2023/10/25 14:04:34;;;;;;;6.80;5.00;;;;;;;;;;5110345;27;20455;-87
2023/10/25 14:07:00;;;;;;;10.37;5.03;;;;;;;;;;5117960;28;20461;-86
2023/10/25 14:09:26;;;;;;;9.23;5.73;;;;;;;;;;5085396;28;20181;-91
2023/10/25 14:11:55;;;;;;;10.33;6.30;;;;;;;;;;5111807;28;20432;-87
2023/10/25 14:14:21;;;;;;;8.17;6.80;;;;;;;;;;5083459;28;20438;-86
2023/10/25 14:16:47;;;;;;;10.80;8.20;;;;;;;;;;5099088;28;20780;-85
2023/10/25 14:19:13;;;;;;;8.70;6.57;;;;;;;;;;5080374;28;20551;-86
2023/10/25 14:21:39;;;;;;;12.30;8.50;;;;;;;;;;5094619;28;20442;-85
2023/10/25 14:24:06;;;;;;;11.57;8.60;;;;;;;;;;5099846;28;20453;-85
2023/10/25 14:26:33;;;;;;;10.37;8.63;;;;;;;;;;5116086;28;20427;-86
2023/10/25 14:28:58;;;;;;;11.70;9.67;;;;;;;;;;5159700;22;20477;-86